Latest Weather Observations for Lake Grace

IDW60801

Issued at 8:03 am WST Tuesday 16 August 2022 (issued every 10 minutes, with the page automatically refreshed every 10 minutes)

About weather observations | Map of weather stations | Latest weather observations for WA | Other Formats
Station Details ID: 010911 Name: LAKE GRACE Lat: -33.10 Lon: 118.46 Height: 286.0 m
Data from the previous 72 hours. | See also: Recent months at Lake Grace
Date/Time
WST
Temp
°C
App
Temp
°C
Dew
Point
°C
Rel
Hum
%
Delta-T
°C
Wind Press
QNH
hPa
Press
MSL
hPa
Rain since
9am
mm
Dir  Spd
km/h
Gust
km/h
Spd
kts
Gust
kts
16/08:00am 16.6 14.9 15.8 95 0.5 NW 19 28 10 15 1003.7 1003.7 12.4
16/07:30am 16.1 13.7 15.5 96 0.4 NW 22 32 12 17 1002.9 1002.9 12.4
16/07:00am 16.9 14.6 16.7 99 0.1 NNW 24 39 13 21 1002.4 1002.4 10.4
16/06:30am 16.7 14.3 16.5 99 0.1 N 24 33 13 18 1001.7 1001.7 9.4
16/06:00am 16.7 14.0 16.5 99 0.1 N 26 35 14 19 1000.9 1000.9 8.6
16/05:30am 16.5 13.3 16.3 99 0.1 N 28 39 15 21 1001.4 1001.4 8.4
16/05:00am 16.2 12.1 16.0 99 0.1 N 32 41 17 22 1001.2 1001.2 8.4
16/04:30am 15.9 12.1 15.7 99 0.1 N 30 43 16 23 1001.2 1001.2 8.4
16/04:00am 15.7 12.2 15.5 99 0.1 N 28 41 15 22 1001.8 1001.8 7.8
16/03:30am 15.7 12.2 15.5 99 0.1 N 28 41 15 22 1002.0 1002.0 7.4
16/03:00am 15.6 12.1 15.4 99 0.1 NNE 28 39 15 21 1002.3 1002.3 7.2
16/02:31am 15.6 12.1 15.4 99 0.1 NNE 28 46 15 25 1002.4 1002.4 7.0
16/02:30am 15.6 11.7 15.4 99 0.1 NNE 30 46 16 25 1002.3 1002.3 7.0
16/02:16am 15.6 12.8 15.4 99 0.1 NNE 24 43 13 23 1002.2 1002.1 7.0
16/02:00am 15.7 11.8 15.4 98 0.2 N 30 43 16 23 1004.3 1004.3 7.0
16/01:30am 15.8 11.8 15.2 96 0.4 N 30 41 16 22 1005.1 1005.1 6.6
16/01:00am 15.9 11.3 15.1 95 0.5 N 33 44 18 24 1005.1 1005.1 6.0
16/12:30am 16.2 11.0 14.6 90 0.9 N 35 46 19 25 1005.1 1005.1 5.4
16/12:00am 16.2 11.7 14.9 92 0.8 N 32 43 17 23 1005.1 1005.1 5.4
 
Date/Time
WST
Temp
°C
App
Temp
°C
Dew
Point
°C
Rel
Hum
%
Delta-T
°C
Wind Press
QNH
hPa
Press
MSL
hPa
Rain since
9am
mm
Dir  Spd
km/h
Gust
km/h
Spd
kts
Gust
kts
15/11:30pm 15.5 13.3 15.0 97 0.3 NNE 20 32 11 17 1005.0 1005.0 5.4
15/11:00pm 15.2 14.0 15.0 99 0.1 NNE 15 24 8 13 1006.2 1006.2 5.0
15/10:30pm 15.3 13.6 14.8 97 0.3 N 17 22 9 12 1007.4 1007.4 2.4
15/10:00pm 15.3 14.8 14.8 97 0.3 NNE 11 17 6 9 1007.3 1007.3 1.4
15/09:30pm 15.7 14.0 14.6 93 0.6 N 17 22 9 12 1008.0 1008.0 0.4
15/09:00pm 15.9 14.4 14.1 89 1.0 N 15 24 8 13 1008.2 1008.3 0.2
15/08:30pm 15.5 14.8 14.2 92 0.7 N 11 15 6 8 1008.4 1008.5 0.2
15/08:00pm 16.0 13.6 13.8 87 1.3 N 19 32 10 17 1008.8 1008.9 0.0
15/07:30pm 16.3 13.3 13.6 84 1.5 N 22 33 12 18 1009.1 1009.2 0.0
15/07:00pm 17.6 13.8 12.3 71 3.0 N 24 33 13 18 1009.0 1009.1 0.0
15/06:59pm 17.7 13.9 12.4 71 3.0 N 24 33 13 18 1009.0 1009.1 0.0
15/06:30pm 16.6 15.6 12.2 75 2.4 N 9 13 5 7 1009.0 1009.1 0.0
15/06:00pm 17.3 15.1 12.0 71 3.0 N 15 19 8 10 1008.8 1008.9 0.0
15/05:30pm 18.3 15.3 11.8 66 3.6 N 19 22 10 12 1008.7 1008.8 0.0
15/05:00pm 19.1 16.0 12.1 64 3.9 N 20 24 11 13 1008.8 1008.9 0.0
15/04:30pm 20.2 16.2 11.9 59 4.7 N 24 32 13 17 1009.0 1009.1 0.0
15/04:00pm 20.7 16.3 11.6 56 5.1 N 26 35 14 19 1009.2 1009.3 0.0
15/03:30pm 21.0 16.2 11.6 55 5.3 N 28 43 15 23 1009.1 1009.2 0.0
15/03:00pm 21.3 16.3 10.8 51 5.8 N 28 46 15 25 1009.4 1009.5 0.0
15/02:30pm 21.4 16.4 11.1 52 5.8 N 28 43 15 23 1009.7 1009.7 0.0
15/02:00pm 21.0 14.8 10.2 50 5.9 N 33 46 18 25 1010.0 1010.0 0.0
15/01:30pm 21.0 14.9 10.5 51 5.8 N 33 48 18 26 1010.8 1010.8 0.0
15/01:00pm 20.3 16.1 9.8 51 5.7 N 22 33 12 18 1011.7 1011.8 0.0
15/12:30pm 19.7 15.2 9.9 53 5.3 N 24 35 13 19 1012.5 1012.6 0.0
15/12:00pm 18.8 13.7 9.3 54 5.1 N 26 37 14 20 1013.6 1013.6 0.0
15/11:30am 17.8 12.2 8.6 55 4.8 N 28 37 15 20 1014.3 1014.4 0.0
15/11:00am 17.0 11.6 9.4 61 4.0 N 28 39 15 21 1014.8 1014.9 0.0
15/10:30am 15.6 11.7 8.8 64 3.5 N 19 30 10 16 1015.2 1015.3 0.0
15/10:00am 13.4 9.6 7.4 67 3.0 N 17 24 9 13 1015.9 1016.0 0.0
15/09:30am 11.4 6.9 6.3 71 2.4 NNE 19 28 10 15 1016.4 1016.5 0.0
15/09:00am 10.3 6.6 6.3 76 1.9 N 15 22 8 12 1016.6 1016.7 0.0
15/08:30am 8.9 6.2 5.8 81 1.4 NNE 9 15 5 8 1016.9 1016.9 0.0
15/08:00am 6.3 4.1 5.1 92 0.5 NNW 6 7 3 4 1017.0 1017.0 0.0
15/07:30am 4.2 2.8 3.8 97 0.2 CALM 0 0 0 0 1017.1 1017.2 0.0
15/07:00am 2.6 0.9 2.0 96 0.2 CALM 0 0 0 0 1017.1 1017.2 0.0
15/06:30am 3.5 2.0 2.8 95 0.3 CALM 0 0 0 0 1017.2 1017.3 0.0
15/06:00am 3.4 1.9 2.8 96 0.2 CALM 0 0 0 0 1017.2 1017.3 0.0
15/05:30am 3.3 1.4 2.9 97 0.2 NNW 2 7 1 4 1017.1 1017.2 0.0
15/05:00am 3.4 1.1 2.8 96 0.2 N 4 6 2 3 1017.3 1017.4 0.0
15/04:30am 3.6 0.9 2.6 93 0.4 NNW 6 7 3 4 1017.4 1017.5 0.0
15/04:00am 4.4 1.6 3.2 92 0.5 N 7 9 4 5 1017.7 1017.8 0.0
15/03:30am 6.6 4.1 3.6 81 1.3 ENE 6 9 3 5 1017.7 1017.8 0.0
15/03:00am 6.9 3.5 3.9 81 1.3 ENE 11 15 6 8 1018.0 1018.1 0.0
15/02:30am 6.9 3.5 4.0 82 1.3 ENE 11 17 6 9 1018.3 1018.4 0.0
15/02:00am 7.1 4.1 4.1 81 1.3 ENE 9 13 5 7 1018.5 1018.6 0.0
15/01:30am 7.8 5.3 4.6 80 1.4 ENE 7 13 4 7 1018.9 1019.0 0.0
15/01:00am 6.7 4.3 4.5 86 1.0 NE 6 11 3 6 1019.2 1019.3 0.0
15/12:30am 7.1 4.7 4.4 83 1.2 NNE 6 9 3 5 1019.2 1019.3 0.0
15/12:00am 7.3 5.0 4.6 83 1.2 NE 6 9 3 5 1019.6 1019.7 0.0
 
Date/Time
WST
Temp
°C
App
Temp
°C
Dew
Point
°C
Rel
Hum
%
Delta-T
°C
Wind Press
QNH
hPa
Press
MSL
hPa
Rain since
9am
mm
Dir  Spd
km/h
Gust
km/h
Spd
kts
Gust
kts
14/11:30pm 7.7 5.2 4.7 81 1.3 NE 7 9 4 5 1019.6 1019.7 0.0
14/11:00pm 7.3 5.0 4.6 83 1.2 NE 6 7 3 4 1019.8 1019.9 0.0
14/10:30pm 7.3 5.3 4.4 82 1.3 NNE 4 9 2 5 1019.8 1019.9 0.0
14/10:00pm 7.1 4.9 5.3 88 0.8 NE 6 7 3 4 1020.2 1020.4 0.0
14/09:30pm 6.5 5.4 5.3 92 0.5 CALM 0 0 0 0 1020.1 1020.3 0.0
14/09:00pm 7.1 6.1 5.6 90 0.7 CALM 0 0 0 0 1020.1 1020.3 0.0
14/08:30pm 7.6 6.5 5.1 84 1.1 CALM 0 0 0 0 1020.0 1020.2 0.0
14/08:00pm 8.1 7.0 5.2 82 1.3 CALM 0 6 0 3 1020.0 1020.2 0.0
14/07:30pm 8.7 7.7 5.8 82 1.3 CALM 0 0 0 0 1019.8 1019.9 0.0
14/07:00pm 8.9 6.7 5.1 77 1.7 NNE 6 9 3 5 1019.7 1019.8 0.0
14/06:30pm 9.9 9.0 5.9 76 1.9 CALM 0 0 0 0 1019.3 1019.4 0.0
14/06:00pm 11.4 10.6 6.5 72 2.3 CALM 0 0 0 0 1019.1 1019.2 0.0
14/05:30pm 12.6 10.6 7.1 69 2.7 N 7 7 4 4 1018.9 1019.0 0.0
14/05:00pm 14.8 12.3 3.9 48 5.1 W 6 9 3 5 1018.7 1018.8 0.0
14/04:30pm 14.7 11.7 4.1 49 5.0 WNW 9 15 5 8 1018.9 1019.0 0.0
14/04:00pm 15.4 12.0 4.2 47 5.3 WNW 11 17 6 9 1018.4 1018.5 0.0
14/03:30pm 15.7 13.2 4.7 48 5.2 WNW 7 13 4 7 1018.5 1018.6 0.0
14/03:00pm 14.9 12.4 4.9 51 4.7 WNW 7 11 4 6 1018.6 1018.7 0.0
14/02:30pm 15.1 12.3 5.3 52 4.7 W 9 13 5 7 1018.5 1018.6 0.0
14/02:00pm 15.4 12.8 5.9 53 4.6 N 9 17 5 9 1018.4 1018.5 0.0
14/01:30pm 14.9 11.5 4.0 48 5.1 NW 11 15 6 8 1018.5 1018.6 0.0
14/01:00pm 14.8 11.6 5.1 52 4.6 NNW 11 15 6 8 1018.8 1018.9 0.0
14/12:30pm 14.3 11.1 4.9 53 4.5 WNW 11 17 6 9 1018.9 1019.0 0.0
14/12:00pm 14.2 11.2 5.8 57 4.0 WNW 11 19 6 10 1019.0 1019.1 0.0
14/11:30am 13.6 10.7 4.7 55 4.2 WSW 9 17 5 9 1019.2 1019.3 0.0
14/11:00am 13.3 10.4 6.4 63 3.3 WSW 11 17 6 9 1019.5 1019.6 0.0
14/10:30am 12.6 9.4 6.9 68 2.8 WSW 13 19 7 10 1019.5 1019.6 0.0
14/10:00am 11.8 9.0 7.1 73 2.3 W 11 17 6 9 1019.6 1019.7 0.0
14/09:30am 11.2 8.7 8.1 81 1.5 WSW 11 15 6 8 1019.3 1019.4 0.0
14/09:00am 9.9 8.7 8.0 88 0.9 W 4 9 2 5 1019.3 1019.4 4.8
14/08:30am 8.3 6.1 7.9 97 0.2 NW 9 13 5 7 1019.2 1019.3 4.8
14/08:00am 7.0 5.1 6.9 99 0.0 NW 6 7 3 4 1018.8 1018.9 4.8
14/07:30am 5.4 3.0 5.3 99 0.0 N 7 9 4 5 1017.9 1018.0 4.8
14/07:00am 4.5 1.9 4.4 99 0.0 N 7 9 4 5 1016.9 1016.9 4.8
14/06:30am 4.7 2.4 4.6 99 0.0 N 6 7 3 4 1016.2 1016.3 4.8
14/06:00am 5.8 3.7 5.7 99 0.0 NW 6 9 3 5 1015.8 1015.9 4.8
14/05:30am 5.9 3.6 5.8 99 0.0 NW 7 9 4 5 1015.5 1015.6 4.8
14/05:00am 6.4 3.8 6.3 99 0.0 NW 9 11 5 6 1015.2 1015.3 4.8
14/04:30am 6.4 3.8 6.3 99 0.0 NW 9 11 5 6 1015.1 1015.2 4.8
14/04:00am 5.6 3.3 5.5 99 0.0 N 7 9 4 5 1014.6 1014.7 4.8
14/03:30am 6.9 4.5 6.8 99 0.0 NW 9 11 5 6 1013.7 1013.7 4.6
14/03:00am 7.1 4.7 7.0 99 0.0 WNW 9 13 5 7 1013.7 1013.7 4.6
14/02:30am 7.6 5.3 7.5 99 0.0 NW 9 13 5 7 1013.6 1013.6 4.6
14/02:00am 7.9 5.3 7.6 98 0.1 WNW 11 15 6 8 1013.5 1013.5 4.6
14/01:30am 8.3 5.7 7.9 97 0.2 WNW 11 13 6 7 1013.4 1013.4 4.6
14/01:00am 8.8 5.9 8.2 96 0.3 WNW 13 17 7 9 1013.0 1013.1 4.6
14/12:30am 9.2 6.4 8.4 95 0.4 WNW 13 15 7 8 1012.8 1012.9 4.6
14/12:00am 9.2 6.7 8.3 94 0.4 NW 11 15 6 8 1012.4 1012.5 4.6
 
Date/Time
WST
Temp
°C
App
Temp
°C
Dew
Point
°C
Rel
Hum
%
Delta-T
°C
Wind Press
QNH
hPa
Press
MSL
hPa
Rain since
9am
mm
Dir  Spd
km/h
Gust
km/h
Spd
kts
Gust
kts
13/11:30pm 9.6 6.8 8.5 93 0.5 NW 13 17 7 9 1012.1 1012.2 4.6
13/11:00pm 9.7 7.2 8.3 91 0.7 NNW 11 17 6 9 1011.6 1011.7 4.6
13/10:30pm 10.4 7.6 8.7 89 0.8 NW 13 19 7 10 1011.3 1011.4 4.6
13/10:00pm 10.1 7.5 9.3 95 0.4 NNW 13 19 7 10 1010.9 1010.9 4.6
13/09:30pm 10.6 8.4 9.5 93 0.6 NNW 11 15 6 8 1010.5 1010.5 4.6
13/09:00pm 11.5 9.6 10.6 94 0.5 WNW 11 19 6 10 1010.2 1010.2 4.6
13/08:30pm 11.9 8.4 10.8 93 0.6 NW 20 44 11 24 1010.1 1010.1 4.4
13/08:00pm 11.9 9.1 11.4 97 0.3 N 17 22 9 12 1009.3 1009.4 4.4
13/07:30pm 12.0 8.7 11.7 98 0.2 N 20 26 11 14 1009.3 1009.4 4.4
13/07:00pm 12.1 8.4 11.6 97 0.3 N 22 32 12 17 1008.6 1008.7 4.2
13/06:30pm 12.1 8.4 11.5 96 0.3 NNW 22 37 12 20 1008.3 1008.4 4.2
13/06:00pm 12.1 7.3 11.5 96 0.3 N 28 41 15 22 1007.8 1007.8 4.2
13/05:30pm 11.8 6.9 11.3 97 0.3 N 28 35 15 19 1007.9 1007.9 4.2
13/05:00pm 12.0 7.4 11.1 94 0.5 N 26 39 14 21 1007.8 1007.8 3.6
13/04:30pm 12.4 8.7 10.3 87 1.1 NNW 20 32 11 17 1007.7 1007.7 2.0
13/04:09pm 13.3 7.9 9.5 78 2.0 N 28 48 15 26 1007.1 1007.1 0.6
13/04:00pm 14.3 9.5 8.9 70 2.8 N 24 32 13 17 1007.2 1007.2 0.2
13/03:30pm 14.4 9.6 9.0 70 2.8 N 24 48 13 26 1006.5 1006.5 0.0
13/03:00pm 16.4 11.5 7.1 54 4.7 N 22 33 12 18 1006.9 1006.9 0.0
13/02:30pm 16.3 10.4 5.9 50 5.1 N 26 33 14 18 1006.9 1006.9 0.0
13/02:00pm 16.4 10.4 5.4 48 5.4 N 26 41 14 22 1007.4 1007.4 0.0
13/01:30pm 16.3 11.9 6.4 52 4.9 NNE 19 26 10 14 1007.6 1007.6 0.0
13/01:00pm 16.2 11.5 6.1 51 5.0 NNE 20 33 11 18 1008.1 1008.2 0.0
13/12:30pm 16.1 11.5 6.5 53 4.8 NNE 20 30 11 16 1008.8 1008.9 0.0
13/12:00pm 16.0 10.5 5.9 51 5.0 NNE 24 37 13 20 1009.8 1009.8 0.0
13/11:30am 16.3 9.6 5.6 49 5.2 N 30 50 16 27 1010.8 1010.8 0.0
13/11:15am 16.4 10.0 5.4 48 5.3 NNE 28 46 15 25 1011.3 1011.4 0.0
13/11:00am 16.0 8.8 5.0 48 5.3 N 32 43 17 23 1011.6 1011.7 0.0
13/10:30am 15.1 10.2 5.3 52 4.7 NNE 20 30 11 16 1012.2 1012.3 0.0
13/10:00am 14.7 9.6 6.0 56 4.2 NNE 22 35 12 19 1012.9 1013.0 0.0
13/09:30am 12.6 7.9 5.3 61 3.4 NNE 19 26 10 14 1013.4 1013.4 0.0
13/09:00am 12.0 7.2 4.7 61 3.4 NNE 19 30 10 16 1013.5 1013.5 0.0
13/08:30am 11.7 6.8 4.9 63 3.2 NNE 20 32 11 17 1013.5 1013.5 0.0

Other formats

Comma delimited format used in spreadsheet applications
http://www.bom.gov.au/fwo/IDW60801/IDW60801.95637.axf

JavaScript Object Notation format (JSON) in row-major order
http://www.bom.gov.au/fwo/IDW60801/IDW60801.95637.json

Data quality

Most of these data are generated automatically and are frequently updated. Quality checks on data are not normally performed. It is possible for incorrect values to appear. Refer to information at About Latest Weather Observations and please check the disclaimer before using these data.